Terminal Aerodrome Forecast
Issued by NWS Cleveland, OH

Home | Current Version | Previous Version | Graphics & Text | Print | Product List | Glossary Off
Versions: 1 2 3 4 5 6 7 8 9 10 11 12 13 14 15 16 17 18 19 20

000
FTUS41 KCLE 291700
TAFYNG
TAF
KYNG 291730Z 2918/3018 18012G22KT P6SM SCT250
     FM300000 19015G25KT P6SM OVC100
     FM300300 19015G25KT 6SM -SHRASN OVC050
     FM300600 21015G25KT 4SM -SHRA OVC025
     FM301000 27012G22KT P6SM OVC015=

USA.gov is the U.S. government's official web portal to all federal, state and local government web resources and services.